Itumirim, Brazil
Current Conditions -  °F | °C
As of 6:00 PM on Monday 26 Jan 2015 (Local Time) from SBBQ Reporting Station
Thunderstorm Thunderstorm  
Wind Chill: 63°   Ceiling: 2100
Heat Index: 63°   Visibility: 1.2mi
Dew Point: 61°   Wind: 10mph
Humidity: 94%   Direction: 220°SW
Pressure: 30.15"   Gusts: NA
Location:  21.32°S, 44.87°W
Report Text: SBBQ 262000Z 22009KT 2000 +TSRA BKN021 FEW035CB 17/16 Q1021
Loading
Personal Weather Stations






























Interactive Weather Map New forecast layout! Learn more

10-Day Weather Forecast

Advertisements
Track Severe Weather on mobile